Dothan, Alabama
Current Conditions -  °F | °C
As of 2:53 PM on Saturday 20 Dec 2014 (Local Time) from KDHN Reporting Station
Overcast Overcast  
Wind Chill: 14°   Ceiling: 10000
Heat Index: 14°   Visibility: 10mi
Dew Point: 10°   Wind: 7mph
Humidity: 77%   Direction: 50°NE
Pressure: 30.12"   Gusts: NA
Location:  31.22°N, 85.39°W
Report Text: KDHN 202053Z 05006KT 10SM BKN100 OVC120 14/10 A3012 RMK AO2 RAE04 SLP197 P0000 60000 T01390100 56015
Loading
Personal Weather Stations






























Interactive Weather Map New forecast layout! Learn more

10-Day Weather Forecast

Advertisements
Track Severe Weather on mobile